sensor_id;sensor_type;location;lat;lon;timestamp;temperature;humidity
27559;DHT22;15002;52.028;5.670;2023-12-28T00:00:30;12.30;99.90
27559;DHT22;15002;52.028;5.670;2023-12-28T00:02:56;12.30;99.90
27559;DHT22;15002;52.028;5.670;2023-12-28T00:05:22;12.60;99.90
27559;DHT22;15002;52.028;5.670;2023-12-28T00:07:47;12.50;99.90
27559;DHT22;15002;52.028;5.670;2023-12-28T00:10:13;12.40;99.90
27559;DHT22;15002;52.028;5.670;2023-12-28T00:12:38;12.30;99.90
27559;DHT22;15002;52.028;5.670;2023-12-28T00:15:04;12.50;99.90
27559;DHT22;15002;52.028;5.670;2023-12-28T00:17:30;12.30;99.90
27559;DHT22;15002;52.028;5.670;2023-12-28T00:19:56;12.40;99.90
27559;DHT22;15002;52.028;5.670;2023-12-28T00:22:21;12.50;99.90
27559;DHT22;15002;52.028;5.670;2023-12-28T00:24:47;12.50;99.90
27559;DHT22;15002;52.028;5.670;2023-12-28T00:27:12;12.50;99.90
27559;DHT22;15002;52.028;5.670;2023-12-28T00:29:38;12.40;99.90
27559;DHT22;15002;52.028;5.670;2023-12-28T00:32:07;12.40;99.90
27559;DHT22;15002;52.028;5.670;2023-12-28T00:34:32;12.30;99.90
27559;DHT22;15002;52.028;5.670;2023-12-28T00:36:58;12.60;99.90
27559;DHT22;15002;52.028;5.670;2023-12-28T00:39:24;12.70;99.90
27559;DHT22;15002;52.028;5.670;2023-12-28T00:41:49;12.60;99.90
27559;DHT22;15002;52.028;5.670;2023-12-28T00:44:15;12.70;99.90
27559;DHT22;15002;52.028;5.670;2023-12-28T00:46:41;12.90;99.90
27559;DHT22;15002;52.028;5.670;2023-12-28T00:49:07;12.80;99.90
27559;DHT22;15002;52.028;5.670;2023-12-28T00:51:33;12.80;99.90
27559;DHT22;15002;52.028;5.670;2023-12-28T00:53:59;12.80;99.90
27559;DHT22;15002;52.028;5.670;2023-12-28T00:56:24;13.00;99.90
27559;DHT22;15002;52.028;5.670;2023-12-28T00:58:50;12.80;99.90
27559;DHT22;15002;52.028;5.670;2023-12-28T01:01:16;12.70;99.90
27559;DHT22;15002;52.028;5.670;2023-12-28T01:03:41;12.70;99.90
27559;DHT22;15002;52.028;5.670;2023-12-28T01:06:07;12.40;99.90
27559;DHT22;15002;52.028;5.670;2023-12-28T01:08:33;12.50;99.90
27559;DHT22;15002;52.028;5.670;2023-12-28T01:11:02;12.60;99.90
27559;DHT22;15002;52.028;5.670;2023-12-28T01:13:28;12.90;99.90
27559;DHT22;15002;52.028;5.670;2023-12-28T01:15:54;12.80;99.90
27559;DHT22;15002;52.028;5.670;2023-12-28T01:18:19;12.80;99.90
27559;DHT22;15002;52.028;5.670;2023-12-28T01:20:45;12.70;99.90
27559;DHT22;15002;52.028;5.670;2023-12-28T01:23:11;12.60;99.90
27559;DHT22;15002;52.028;5.670;2023-12-28T01:25:36;12.60;99.90
27559;DHT22;15002;52.028;5.670;2023-12-28T01:28:02;12.70;99.90
27559;DHT22;15002;52.028;5.670;2023-12-28T01:30:28;12.70;99.90
27559;DHT22;15002;52.028;5.670;2023-12-28T01:32:54;12.80;99.90
27559;DHT22;15002;52.028;5.670;2023-12-28T01:35:19;12.70;99.90
27559;DHT22;15002;52.028;5.670;2023-12-28T01:37:45;12.80;99.90
27559;DHT22;15002;52.028;5.670;2023-12-28T01:40:11;12.80;99.90
27559;DHT22;15002;52.028;5.670;2023-12-28T01:42:37;12.80;99.90
27559;DHT22;15002;52.028;5.670;2023-12-28T01:45:03;12.70;99.90
27559;DHT22;15002;52.028;5.670;2023-12-28T01:47:29;12.60;99.90
27559;DHT22;15002;52.028;5.670;2023-12-28T01:49:56;12.90;99.90
27559;DHT22;15002;52.028;5.670;2023-12-28T01:52:21;13.00;99.90
27559;DHT22;15002;52.028;5.670;2023-12-28T01:54:47;13.00;99.90
27559;DHT22;15002;52.028;5.670;2023-12-28T01:57:14;12.90;99.90
27559;DHT22;15002;52.028;5.670;2023-12-28T01:59:41;12.80;99.90
27559;DHT22;15002;52.028;5.670;2023-12-28T02:02:07;12.70;99.90
27559;DHT22;15002;52.028;5.670;2023-12-28T02:04:33;12.80;99.90
27559;DHT22;15002;52.028;5.670;2023-12-28T02:07:00;12.80;99.90
27559;DHT22;15002;52.028;5.670;2023-12-28T02:09:25;13.10;99.90
27559;DHT22;15002;52.028;5.670;2023-12-28T02:11:52;13.00;99.90
27559;DHT22;15002;52.028;5.670;2023-12-28T02:14:18;12.70;99.90
27559;DHT22;15002;52.028;5.670;2023-12-28T02:16:54;12.80;99.90
27559;DHT22;15002;52.028;5.670;2023-12-28T02:19:42;12.50;99.90
27559;DHT22;15002;52.028;5.670;2023-12-28T02:22:10;12.60;99.90
27559;DHT22;15002;52.028;5.670;2023-12-28T02:27:24;12.80;99.90
27559;DHT22;15002;52.028;5.670;2023-12-28T02:29:50;12.80;99.90
27559;DHT22;15002;52.028;5.670;2023-12-28T02:32:17;12.60;99.90
27559;DHT22;15002;52.028;5.670;2023-12-28T02:34:44;12.70;99.90
27559;DHT22;15002;52.028;5.670;2023-12-28T02:37:15;12.60;99.90
27559;DHT22;15002;52.028;5.670;2023-12-28T02:39:42;12.60;99.90
27559;DHT22;15002;52.028;5.670;2023-12-28T02:42:09;12.60;99.90
27559;DHT22;15002;52.028;5.670;2023-12-28T02:44:35;12.70;99.90
27559;DHT22;15002;52.028;5.670;2023-12-28T02:47:01;12.60;99.90
27559;DHT22;15002;52.028;5.670;2023-12-28T02:49:26;12.40;99.90
27559;DHT22;15002;52.028;5.670;2023-12-28T02:51:52;12.50;99.90
27559;DHT22;15002;52.028;5.670;2023-12-28T02:54:18;12.40;99.90
27559;DHT22;15002;52.028;5.670;2023-12-28T02:56:43;12.40;99.90
27559;DHT22;15002;52.028;5.670;2023-12-28T02:59:09;12.30;99.90
27559;DHT22;15002;52.028;5.670;2023-12-28T03:01:35;12.20;99.90
27559;DHT22;15002;52.028;5.670;2023-12-28T03:04:00;12.20;99.90
27559;DHT22;15002;52.028;5.670;2023-12-28T03:06:26;12.30;99.90
27559;DHT22;15002;52.028;5.670;2023-12-28T03:08:51;12.30;99.90
27559;DHT22;15002;52.028;5.670;2023-12-28T03:11:17;12.20;99.90
27559;DHT22;15002;52.028;5.670;2023-12-28T03:13:43;12.20;99.90
27559;DHT22;15002;52.028;5.670;2023-12-28T03:16:08;12.10;99.90
27559;DHT22;15002;52.028;5.670;2023-12-28T03:18:34;12.30;99.90
27559;DHT22;15002;52.028;5.670;2023-12-28T03:21:00;12.30;99.90
27559;DHT22;15002;52.028;5.670;2023-12-28T03:23:25;12.40;99.90
27559;DHT22;15002;52.028;5.670;2023-12-28T03:25:51;12.30;99.90
27559;DHT22;15002;52.028;5.670;2023-12-28T03:28:16;12.30;99.90
27559;DHT22;15002;52.028;5.670;2023-12-28T03:30:42;12.40;99.90
27559;DHT22;15002;52.028;5.670;2023-12-28T03:33:08;12.30;99.90
27559;DHT22;15002;52.028;5.670;2023-12-28T03:35:33;12.40;99.90
27559;DHT22;15002;52.028;5.670;2023-12-28T03:38:00;12.40;99.90
27559;DHT22;15002;52.028;5.670;2023-12-28T03:40:25;12.50;99.90
27559;DHT22;15002;52.028;5.670;2023-12-28T03:42:51;12.50;99.90
27559;DHT22;15002;52.028;5.670;2023-12-28T03:45:16;12.30;99.90
27559;DHT22;15002;52.028;5.670;2023-12-28T03:47:42;12.40;99.90
27559;DHT22;15002;52.028;5.670;2023-12-28T03:50:08;12.60;99.90
27559;DHT22;15002;52.028;5.670;2023-12-28T03:52:34;12.60;99.90
27559;DHT22;15002;52.028;5.670;2023-12-28T03:54:59;12.50;99.90
27559;DHT22;15002;52.028;5.670;2023-12-28T03:57:25;12.60;99.90
27559;DHT22;15002;52.028;5.670;2023-12-28T03:59:51;12.40;99.90
27559;DHT22;15002;52.028;5.670;2023-12-28T04:02:17;12.60;99.90
27559;DHT22;15002;52.028;5.670;2023-12-28T04:04:42;12.60;99.90
27559;DHT22;15002;52.028;5.670;2023-12-28T04:07:08;12.50;99.90
27559;DHT22;15002;52.028;5.670;2023-12-28T04:09:34;12.30;99.90
27559;DHT22;15002;52.028;5.670;2023-12-28T04:11:59;12.30;99.90
27559;DHT22;15002;52.028;5.670;2023-12-28T04:14:25;12.20;99.90
27559;DHT22;15002;52.028;5.670;2023-12-28T04:16:51;12.40;99.90
27559;DHT22;15002;52.028;5.670;2023-12-28T04:19:16;12.40;99.90
27559;DHT22;15002;52.028;5.670;2023-12-28T04:21:45;12.30;99.90
27559;DHT22;15002;52.028;5.670;2023-12-28T04:24:10;12.30;99.90
27559;DHT22;15002;52.028;5.670;2023-12-28T04:26:36;12.20;99.90
27559;DHT22;15002;52.028;5.670;2023-12-28T04:29:02;12.10;99.90
27559;DHT22;15002;52.028;5.670;2023-12-28T04:31:27;12.30;99.90
27559;DHT22;15002;52.028;5.670;2023-12-28T04:33:53;12.20;99.90
27559;DHT22;15002;52.028;5.670;2023-12-28T04:36:19;12.30;99.90
27559;DHT22;15002;52.028;5.670;2023-12-28T04:38:44;12.30;99.90
27559;DHT22;15002;52.028;5.670;2023-12-28T04:41:10;12.20;99.90
27559;DHT22;15002;52.028;5.670;2023-12-28T04:43:37;12.10;99.90
27559;DHT22;15002;52.028;5.670;2023-12-28T04:46:03;12.20;99.90
27559;DHT22;15002;52.028;5.670;2023-12-28T04:48:29;12.30;99.90
27559;DHT22;15002;52.028;5.670;2023-12-28T04:50:55;12.10;99.90
27559;DHT22;15002;52.028;5.670;2023-12-28T04:53:21;11.90;99.90
27559;DHT22;15002;52.028;5.670;2023-12-28T04:55:46;12.10;99.90
27559;DHT22;15002;52.028;5.670;2023-12-28T04:58:12;12.10;99.90
27559;DHT22;15002;52.028;5.670;2023-12-28T05:00:38;12.20;99.90
27559;DHT22;15002;52.028;5.670;2023-12-28T05:03:03;12.10;99.90
27559;DHT22;15002;52.028;5.670;2023-12-28T05:05:29;12.10;99.90
27559;DHT22;15002;52.028;5.670;2023-12-28T05:07:55;12.20;99.90
27559;DHT22;15002;52.028;5.670;2023-12-28T05:10:20;12.40;99.90
27559;DHT22;15002;52.028;5.670;2023-12-28T05:12:46;12.40;99.90
27559;DHT22;15002;52.028;5.670;2023-12-28T05:15:12;12.40;99.90
27559;DHT22;15002;52.028;5.670;2023-12-28T05:17:37;12.50;99.90
27559;DHT22;15002;52.028;5.670;2023-12-28T05:20:04;12.40;99.90
27559;DHT22;15002;52.028;5.670;2023-12-28T05:22:29;12.50;99.90
27559;DHT22;15002;52.028;5.670;2023-12-28T05:24:55;12.40;99.90
27559;DHT22;15002;52.028;5.670;2023-12-28T05:27:20;12.40;99.90
27559;DHT22;15002;52.028;5.670;2023-12-28T05:29:46;12.40;99.90
27559;DHT22;15002;52.028;5.670;2023-12-28T05:32:12;12.40;99.90
27559;DHT22;15002;52.028;5.670;2023-12-28T05:34:37;12.60;99.90
27559;DHT22;15002;52.028;5.670;2023-12-28T05:37:03;12.40;99.90
27559;DHT22;15002;52.028;5.670;2023-12-28T05:39:29;12.20;99.90
27559;DHT22;15002;52.028;5.670;2023-12-28T05:41:54;12.30;99.90
27559;DHT22;15002;52.028;5.670;2023-12-28T05:44:20;12.40;99.90
27559;DHT22;15002;52.028;5.670;2023-12-28T05:46:46;12.50;99.90
27559;DHT22;15002;52.028;5.670;2023-12-28T05:49:12;12.40;99.90
27559;DHT22;15002;52.028;5.670;2023-12-28T05:51:41;12.70;99.90
27559;DHT22;15002;52.028;5.670;2023-12-28T05:54:07;12.60;99.90
27559;DHT22;15002;52.028;5.670;2023-12-28T05:56:33;12.70;99.90
27559;DHT22;15002;52.028;5.670;2023-12-28T05:58:58;12.80;99.90
27559;DHT22;15002;52.028;5.670;2023-12-28T06:01:24;12.80;99.90
27559;DHT22;15002;52.028;5.670;2023-12-28T06:03:50;12.80;99.90
27559;DHT22;15002;52.028;5.670;2023-12-28T06:06:18;12.80;99.90
27559;DHT22;15002;52.028;5.670;2023-12-28T06:08:43;12.50;99.90
27559;DHT22;15002;52.028;5.670;2023-12-28T06:11:09;12.70;99.90
27559;DHT22;15002;52.028;5.670;2023-12-28T06:13:34;12.70;99.90
27559;DHT22;15002;52.028;5.670;2023-12-28T06:16:01;12.60;99.90
27559;DHT22;15002;52.028;5.670;2023-12-28T06:18:26;12.40;99.90
27559;DHT22;15002;52.028;5.670;2023-12-28T06:20:52;12.60;99.90
27559;DHT22;15002;52.028;5.670;2023-12-28T06:23:18;12.50;99.90
27559;DHT22;15002;52.028;5.670;2023-12-28T06:25:43;12.70;99.90
27559;DHT22;15002;52.028;5.670;2023-12-28T06:28:09;12.70;99.90
27559;DHT22;15002;52.028;5.670;2023-12-28T06:30:35;12.70;99.90
27559;DHT22;15002;52.028;5.670;2023-12-28T06:33:00;12.80;99.90
27559;DHT22;15002;52.028;5.670;2023-12-28T06:35:26;12.70;99.90
27559;DHT22;15002;52.028;5.670;2023-12-28T06:37:51;12.90;99.90
27559;DHT22;15002;52.028;5.670;2023-12-28T06:40:17;12.70;99.90
27559;DHT22;15002;52.028;5.670;2023-12-28T06:42:43;12.70;99.90
27559;DHT22;15002;52.028;5.670;2023-12-28T06:45:09;12.90;99.90
27559;DHT22;15002;52.028;5.670;2023-12-28T06:47:35;13.00;99.90
27559;DHT22;15002;52.028;5.670;2023-12-28T06:50:01;12.90;99.90
27559;DHT22;15002;52.028;5.670;2023-12-28T06:52:26;12.90;99.90
27559;DHT22;15002;52.028;5.670;2023-12-28T06:54:52;12.90;99.90
27559;DHT22;15002;52.028;5.670;2023-12-28T06:57:18;12.90;99.90
27559;DHT22;15002;52.028;5.670;2023-12-28T06:59:44;12.90;99.90
27559;DHT22;15002;52.028;5.670;2023-12-28T07:02:10;12.90;99.90
27559;DHT22;15002;52.028;5.670;2023-12-28T07:04:36;13.10;99.90
27559;DHT22;15002;52.028;5.670;2023-12-28T07:07:01;13.00;99.90
27559;DHT22;15002;52.028;5.670;2023-12-28T07:09:27;12.80;99.90
27559;DHT22;15002;52.028;5.670;2023-12-28T07:11:52;12.70;99.90
27559;DHT22;15002;52.028;5.670;2023-12-28T07:14:18;12.70;99.90
27559;DHT22;15002;52.028;5.670;2023-12-28T07:16:44;12.60;99.90
27559;DHT22;15002;52.028;5.670;2023-12-28T07:19:09;12.60;99.90
27559;DHT22;15002;52.028;5.670;2023-12-28T07:21:35;12.50;99.90
27559;DHT22;15002;52.028;5.670;2023-12-28T07:24:00;12.80;99.90
27559;DHT22;15002;52.028;5.670;2023-12-28T07:26:26;12.60;99.90
27559;DHT22;15002;52.028;5.670;2023-12-28T07:28:52;12.70;99.90
27559;DHT22;15002;52.028;5.670;2023-12-28T07:31:25;12.40;99.90
27559;DHT22;15002;52.028;5.670;2023-12-28T07:33:50;12.50;99.90
27559;DHT22;15002;52.028;5.670;2023-12-28T07:36:16;12.60;99.90
27559;DHT22;15002;52.028;5.670;2023-12-28T07:38:42;12.40;99.90
27559;DHT22;15002;52.028;5.670;2023-12-28T07:41:09;12.40;99.90
27559;DHT22;15002;52.028;5.670;2023-12-28T07:43:34;12.30;99.90
27559;DHT22;15002;52.028;5.670;2023-12-28T07:46:01;12.30;99.90
27559;DHT22;15002;52.028;5.670;2023-12-28T07:48:27;12.20;99.90
27559;DHT22;15002;52.028;5.670;2023-12-28T07:50:55;12.30;99.90
27559;DHT22;15002;52.028;5.670;2023-12-28T07:53:20;12.40;99.90
27559;DHT22;15002;52.028;5.670;2023-12-28T07:55:46;12.60;99.90
27559;DHT22;15002;52.028;5.670;2023-12-28T07:58:12;12.50;99.90
27559;DHT22;15002;52.028;5.670;2023-12-28T08:00:38;12.40;99.90
27559;DHT22;15002;52.028;5.670;2023-12-28T08:03:04;12.20;99.90
27559;DHT22;15002;52.028;5.670;2023-12-28T08:05:29;12.10;99.90
27559;DHT22;15002;52.028;5.670;2023-12-28T08:07:55;12.20;99.90
27559;DHT22;15002;52.028;5.670;2023-12-28T08:10:21;12.40;99.90
27559;DHT22;15002;52.028;5.670;2023-12-28T08:12:46;12.60;99.90
27559;DHT22;15002;52.028;5.670;2023-12-28T08:15:12;12.40;99.90
27559;DHT22;15002;52.028;5.670;2023-12-28T08:17:37;12.40;99.90
27559;DHT22;15002;52.028;5.670;2023-12-28T08:20:04;12.80;99.90
27559;DHT22;15002;52.028;5.670;2023-12-28T08:22:31;12.80;99.90
27559;DHT22;15002;52.028;5.670;2023-12-28T08:24:56;12.80;99.90
27559;DHT22;15002;52.028;5.670;2023-12-28T08:27:23;13.00;99.90
27559;DHT22;15002;52.028;5.670;2023-12-28T08:29:49;13.00;99.90
27559;DHT22;15002;52.028;5.670;2023-12-28T08:32:14;12.90;99.90
27559;DHT22;15002;52.028;5.670;2023-12-28T08:34:40;12.80;99.90
27559;DHT22;15002;52.028;5.670;2023-12-28T08:37:06;12.90;99.90
27559;DHT22;15002;52.028;5.670;2023-12-28T08:39:31;13.00;99.90
27559;DHT22;15002;52.028;5.670;2023-12-28T08:41:57;12.90;99.90
27559;DHT22;15002;52.028;5.670;2023-12-28T08:44:23;12.80;99.90
27559;DHT22;15002;52.028;5.670;2023-12-28T08:46:49;12.70;99.90
27559;DHT22;15002;52.028;5.670;2023-12-28T08:49:15;12.90;99.90
27559;DHT22;15002;52.028;5.670;2023-12-28T08:51:41;12.90;99.90
27559;DHT22;15002;52.028;5.670;2023-12-28T08:54:07;12.90;99.90
27559;DHT22;15002;52.028;5.670;2023-12-28T08:56:34;13.10;99.90
27559;DHT22;15002;52.028;5.670;2023-12-28T08:59:00;13.00;99.90
27559;DHT22;15002;52.028;5.670;2023-12-28T09:01:25;12.90;99.90
27559;DHT22;15002;52.028;5.670;2023-12-28T09:03:52;12.90;99.90
27559;DHT22;15002;52.028;5.670;2023-12-28T09:06:19;12.90;99.90
27559;DHT22;15002;52.028;5.670;2023-12-28T09:08:47;12.80;99.90
27559;DHT22;15002;52.028;5.670;2023-12-28T09:11:14;12.80;99.90
27559;DHT22;15002;52.028;5.670;2023-12-28T09:13:40;13.00;99.90
27559;DHT22;15002;52.028;5.670;2023-12-28T09:16:09;13.30;99.90
27559;DHT22;15002;52.028;5.670;2023-12-28T09:18:35;13.10;99.90
27559;DHT22;15002;52.028;5.670;2023-12-28T09:21:03;13.10;99.90
27559;DHT22;15002;52.028;5.670;2023-12-28T09:23:29;13.30;99.90
27559;DHT22;15002;52.028;5.670;2023-12-28T09:25:54;13.30;99.90
27559;DHT22;15002;52.028;5.670;2023-12-28T09:28:20;13.40;99.90
27559;DHT22;15002;52.028;5.670;2023-12-28T09:30:46;13.30;99.90
27559;DHT22;15002;52.028;5.670;2023-12-28T09:33:11;13.30;99.90
27559;DHT22;15002;52.028;5.670;2023-12-28T09:35:37;13.50;99.90
27559;DHT22;15002;52.028;5.670;2023-12-28T09:38:03;13.40;99.90
27559;DHT22;15002;52.028;5.670;2023-12-28T09:40:28;13.50;99.90
27559;DHT22;15002;52.028;5.670;2023-12-28T09:43:03;13.40;99.90
27559;DHT22;15002;52.028;5.670;2023-12-28T09:45:31;13.30;99.90
27559;DHT22;15002;52.028;5.670;2023-12-28T09:47:57;13.40;99.90
27559;DHT22;15002;52.028;5.670;2023-12-28T09:50:23;13.30;99.90
27559;DHT22;15002;52.028;5.670;2023-12-28T09:52:54;13.20;99.90
27559;DHT22;15002;52.028;5.670;2023-12-28T09:55:20;13.30;99.90
27559;DHT22;15002;52.028;5.670;2023-12-28T09:57:46;13.70;99.90
27559;DHT22;15002;52.028;5.670;2023-12-28T10:00:13;13.50;99.90
27559;DHT22;15002;52.028;5.670;2023-12-28T10:02:44;13.50;99.90
27559;DHT22;15002;52.028;5.670;2023-12-28T10:05:14;13.50;99.90
27559;DHT22;15002;52.028;5.670;2023-12-28T10:07:44;13.50;99.90
27559;DHT22;15002;52.028;5.670;2023-12-28T10:10:10;13.50;99.90
27559;DHT22;15002;52.028;5.670;2023-12-28T10:12:37;13.60;99.90
27559;DHT22;15002;52.028;5.670;2023-12-28T10:15:04;13.60;99.90
27559;DHT22;15002;52.028;5.670;2023-12-28T10:17:32;13.70;99.90
27559;DHT22;15002;52.028;5.670;2023-12-28T10:19:58;13.90;99.90
27559;DHT22;15002;52.028;5.670;2023-12-28T10:22:29;13.80;99.90
27559;DHT22;15002;52.028;5.670;2023-12-28T10:24:55;13.70;99.90
27559;DHT22;15002;52.028;5.670;2023-12-28T10:27:21;13.60;99.90
27559;DHT22;15002;52.028;5.670;2023-12-28T10:29:46;14.00;99.90
27559;DHT22;15002;52.028;5.670;2023-12-28T10:32:13;13.90;99.90
27559;DHT22;15002;52.028;5.670;2023-12-28T10:34:39;13.90;99.90
27559;DHT22;15002;52.028;5.670;2023-12-28T10:37:05;13.90;99.90
27559;DHT22;15002;52.028;5.670;2023-12-28T10:39:32;13.80;99.90
27559;DHT22;15002;52.028;5.670;2023-12-28T10:42:00;13.90;99.90
27559;DHT22;15002;52.028;5.670;2023-12-28T10:44:31;13.70;99.90
27559;DHT22;15002;52.028;5.670;2023-12-28T10:47:01;13.70;99.90
27559;DHT22;15002;52.028;5.670;2023-12-28T10:49:29;13.80;99.90
27559;DHT22;15002;52.028;5.670;2023-12-28T10:51:55;13.70;99.90
27559;DHT22;15002;52.028;5.670;2023-12-28T10:54:57;13.70;99.90
27559;DHT22;15002;52.028;5.670;2023-12-28T11:00:23;13.70;99.90
27559;DHT22;15002;52.028;5.670;2023-12-28T11:02:58;13.50;99.90
27559;DHT22;15002;52.028;5.670;2023-12-28T11:05:28;13.70;99.90
27559;DHT22;15002;52.028;5.670;2023-12-28T11:07:55;13.80;99.90
27559;DHT22;15002;52.028;5.670;2023-12-28T11:10:24;13.80;99.90
27559;DHT22;15002;52.028;5.670;2023-12-28T11:12:53;13.60;99.90
27559;DHT22;15002;52.028;5.670;2023-12-28T11:15:19;13.50;99.90
27559;DHT22;15002;52.028;5.670;2023-12-28T11:17:46;13.70;99.90
27559;DHT22;15002;52.028;5.670;2023-12-28T11:20:13;13.80;99.90
27559;DHT22;15002;52.028;5.670;2023-12-28T11:22:40;13.70;99.90
27559;DHT22;15002;52.028;5.670;2023-12-28T11:25:06;13.70;99.90
27559;DHT22;15002;52.028;5.670;2023-12-28T11:27:39;13.70;99.90
27559;DHT22;15002;52.028;5.670;2023-12-28T11:30:06;13.80;99.90
27559;DHT22;15002;52.028;5.670;2023-12-28T11:32:42;13.80;99.90
27559;DHT22;15002;52.028;5.670;2023-12-28T11:35:10;13.80;99.90
27559;DHT22;15002;52.028;5.670;2023-12-28T11:37:38;13.80;99.90
27559;DHT22;15002;52.028;5.670;2023-12-28T11:40:17;13.80;99.90
27559;DHT22;15002;52.028;5.670;2023-12-28T11:42:51;13.80;99.90
27559;DHT22;15002;52.028;5.670;2023-12-28T11:45:22;13.60;99.90
27559;DHT22;15002;52.028;5.670;2023-12-28T11:47:58;13.60;99.90
27559;DHT22;15002;52.028;5.670;2023-12-28T11:50:23;13.90;99.90
27559;DHT22;15002;52.028;5.670;2023-12-28T11:52:49;13.80;99.90
27559;DHT22;15002;52.028;5.670;2023-12-28T11:55:24;13.80;99.90
27559;DHT22;15002;52.028;5.670;2023-12-28T11:57:49;13.80;99.90
27559;DHT22;15002;52.028;5.670;2023-12-28T12:00:15;13.70;99.90
27559;DHT22;15002;52.028;5.670;2023-12-28T12:02:43;13.60;99.90
27559;DHT22;15002;52.028;5.670;2023-12-28T12:05:10;13.70;99.90
27559;DHT22;15002;52.028;5.670;2023-12-28T12:07:37;13.80;99.90
27559;DHT22;15002;52.028;5.670;2023-12-28T12:10:03;14.00;99.90
27559;DHT22;15002;52.028;5.670;2023-12-28T12:12:28;13.80;99.90
27559;DHT22;15002;52.028;5.670;2023-12-28T12:14:54;13.80;99.90
27559;DHT22;15002;52.028;5.670;2023-12-28T12:17:21;13.80;99.90
27559;DHT22;15002;52.028;5.670;2023-12-28T12:19:47;13.70;99.90
27559;DHT22;15002;52.028;5.670;2023-12-28T12:22:16;13.80;99.90
27559;DHT22;15002;52.028;5.670;2023-12-28T12:24:44;13.60;99.90
27559;DHT22;15002;52.028;5.670;2023-12-28T12:27:12;13.40;99.90
27559;DHT22;15002;52.028;5.670;2023-12-28T12:29:37;13.60;99.90
27559;DHT22;15002;52.028;5.670;2023-12-28T12:32:03;13.90;99.90
27559;DHT22;15002;52.028;5.670;2023-12-28T12:34:29;14.10;99.90
27559;DHT22;15002;52.028;5.670;2023-12-28T12:36:55;13.90;99.90
27559;DHT22;15002;52.028;5.670;2023-12-28T12:39:23;13.90;99.90
27559;DHT22;15002;52.028;5.670;2023-12-28T12:41:49;14.00;99.90
27559;DHT22;15002;52.028;5.670;2023-12-28T12:44:15;14.00;99.90
27559;DHT22;15002;52.028;5.670;2023-12-28T12:46:44;14.10;99.90
27559;DHT22;15002;52.028;5.670;2023-12-28T12:49:10;14.10;99.90
27559;DHT22;15002;52.028;5.670;2023-12-28T12:51:36;14.00;99.90
27559;DHT22;15002;52.028;5.670;2023-12-28T12:54:02;13.80;99.90
27559;DHT22;15002;52.028;5.670;2023-12-28T12:56:29;13.80;99.90
27559;DHT22;15002;52.028;5.670;2023-12-28T12:58:56;13.70;99.90
27559;DHT22;15002;52.028;5.670;2023-12-28T13:01:22;13.60;99.90
27559;DHT22;15002;52.028;5.670;2023-12-28T13:03:49;13.70;99.90
27559;DHT22;15002;52.028;5.670;2023-12-28T13:06:15;13.80;99.90
27559;DHT22;15002;52.028;5.670;2023-12-28T13:08:41;13.60;99.90
27559;DHT22;15002;52.028;5.670;2023-12-28T13:11:06;13.50;99.90
27559;DHT22;15002;52.028;5.670;2023-12-28T13:13:33;13.80;99.90
27559;DHT22;15002;52.028;5.670;2023-12-28T13:15:58;13.90;99.90
27559;DHT22;15002;52.028;5.670;2023-12-28T13:18:24;13.80;99.90
27559;DHT22;15002;52.028;5.670;2023-12-28T13:20:50;13.50;99.90
27559;DHT22;15002;52.028;5.670;2023-12-28T13:23:15;13.50;99.90
27559;DHT22;15002;52.028;5.670;2023-12-28T13:25:41;13.50;99.90
27559;DHT22;15002;52.028;5.670;2023-12-28T13:28:07;13.90;99.90
27559;DHT22;15002;52.028;5.670;2023-12-28T13:30:34;13.80;99.90
27559;DHT22;15002;52.028;5.670;2023-12-28T13:33:05;13.60;99.90
27559;DHT22;15002;52.028;5.670;2023-12-28T13:35:31;13.60;99.90
27559;DHT22;15002;52.028;5.670;2023-12-28T13:37:59;13.60;99.90
27559;DHT22;15002;52.028;5.670;2023-12-28T13:40:26;13.60;99.90
27559;DHT22;15002;52.028;5.670;2023-12-28T13:42:52;13.60;99.90
27559;DHT22;15002;52.028;5.670;2023-12-28T13:45:18;13.60;99.90
27559;DHT22;15002;52.028;5.670;2023-12-28T13:47:43;13.70;99.90
27559;DHT22;15002;52.028;5.670;2023-12-28T13:50:10;13.50;99.90
27559;DHT22;15002;52.028;5.670;2023-12-28T13:52:35;13.70;99.90
27559;DHT22;15002;52.028;5.670;2023-12-28T13:55:01;13.90;99.90
27559;DHT22;15002;52.028;5.670;2023-12-28T13:57:26;13.70;99.90
27559;DHT22;15002;52.028;5.670;2023-12-28T13:59:52;13.60;99.90
27559;DHT22;15002;52.028;5.670;2023-12-28T14:02:18;13.70;99.90
27559;DHT22;15002;52.028;5.670;2023-12-28T14:04:43;13.70;99.90
27559;DHT22;15002;52.028;5.670;2023-12-28T14:07:09;13.90;99.90
27559;DHT22;15002;52.028;5.670;2023-12-28T14:09:35;13.90;99.90
27559;DHT22;15002;52.028;5.670;2023-12-28T14:12:01;14.00;99.90
27559;DHT22;15002;52.028;5.670;2023-12-28T14:14:27;14.10;99.90
27559;DHT22;15002;52.028;5.670;2023-12-28T14:16:52;14.00;99.90
27559;DHT22;15002;52.028;5.670;2023-12-28T14:19:18;14.10;99.90
27559;DHT22;15002;52.028;5.670;2023-12-28T14:21:44;13.80;99.90
27559;DHT22;15002;52.028;5.670;2023-12-28T14:24:10;13.80;99.90
27559;DHT22;15002;52.028;5.670;2023-12-28T14:26:41;14.10;99.90
27559;DHT22;15002;52.028;5.670;2023-12-28T14:29:09;14.10;99.90
27559;DHT22;15002;52.028;5.670;2023-12-28T14:31:35;14.20;99.90
27559;DHT22;15002;52.028;5.670;2023-12-28T14:34:01;14.10;99.90
27559;DHT22;15002;52.028;5.670;2023-12-28T14:36:33;13.90;99.90
27559;DHT22;15002;52.028;5.670;2023-12-28T14:39:00;13.80;99.90
27559;DHT22;15002;52.028;5.670;2023-12-28T14:41:26;13.90;99.90
27559;DHT22;15002;52.028;5.670;2023-12-28T14:43:52;14.00;99.90
27559;DHT22;15002;52.028;5.670;2023-12-28T14:46:18;14.10;99.90
27559;DHT22;15002;52.028;5.670;2023-12-28T14:48:44;14.00;99.90
27559;DHT22;15002;52.028;5.670;2023-12-28T14:51:09;13.70;99.90
27559;DHT22;15002;52.028;5.670;2023-12-28T14:53:35;13.30;99.90
27559;DHT22;15002;52.028;5.670;2023-12-28T14:56:00;13.20;99.90
27559;DHT22;15002;52.028;5.670;2023-12-28T14:58:26;13.30;99.90
27559;DHT22;15002;52.028;5.670;2023-12-28T15:00:52;13.70;99.90
27559;DHT22;15002;52.028;5.670;2023-12-28T15:03:19;13.60;99.90
27559;DHT22;15002;52.028;5.670;2023-12-28T15:05:45;13.60;99.90
27559;DHT22;15002;52.028;5.670;2023-12-28T15:08:11;13.30;99.90
27559;DHT22;15002;52.028;5.670;2023-12-28T15:10:37;13.40;99.90
27559;DHT22;15002;52.028;5.670;2023-12-28T15:13:03;13.40;99.90
27559;DHT22;15002;52.028;5.670;2023-12-28T15:15:29;13.50;99.90
27559;DHT22;15002;52.028;5.670;2023-12-28T15:17:55;13.70;99.90
27559;DHT22;15002;52.028;5.670;2023-12-28T15:20:22;13.70;99.90
27559;DHT22;15002;52.028;5.670;2023-12-28T15:22:55;13.40;99.90
27559;DHT22;15002;52.028;5.670;2023-12-28T15:25:21;13.30;99.90
27559;DHT22;15002;52.028;5.670;2023-12-28T15:27:47;13.50;99.90
27559;DHT22;15002;52.028;5.670;2023-12-28T15:30:13;13.30;99.90